Aérodrome :
LOGIN :

S'inscrire | Disclaimer

   EN    FR    IT 

 










Légende :    VFR   VFR Marginal   IFR   IFR Intensif   IFR Très Intensif
Visi : 
Plafond : 
>= 8 km
>= 3000ft
5 à 8 km
1000 à 3000 ft
1500m à 5 km
500 à 1000 ft
800 à 1500m
200 à 500 ft
< 800m
< 200 ft
Symboles :   Orages  Brouillard  Fortes neiges  Fortes précipitations  Vent > 20 kt
SIGMETs :   Divers  Orages  Givrage  Turbulence  Onde Orograph.  Cendres Volcan.







- Altitude de l'aérodrome : 645 ft
- Code IATA : DLE
- Voir les cartes d'approche


LFGJ - Dole Tavaux

DERNIER METAR :
  • 262200Z AUTO 06003KT CAVOK 17/14 Q1015

METARs EXPIRÉS :
  • 262130Z AUTO 09003KT CAVOK 17/13 Q1015
  • 262100Z AUTO VRB02KT CAVOK 19/14 Q1015
  • 262030Z AUTO 01002KT CAVOK 19/14 Q1015
  • 262000Z AUTO 01004KT CAVOK 20/14 Q1015 NOSIG
  • 261930Z AUTO 01004KT CAVOK 21/14 Q1015 NOSIG

TAF TAF LFGJ
Valide du 26 à 15h jusqu'au 27 à 00h UTC


261400Z 2615/2624 04006KT CAVOK
Pas de NOTAMs connus pour ce terrain.



MET'MAP, la Météo Aéronautique d'un coup d'oeil ! - Copyright ORBIFLY Décembre 2007 - Disclaimer

ORBIFLY MET'MAP TEAM :

Programmation & Développement : Alexandra Zaïnal
Conception & Développement : Baudouin d'Aumeries
Co-Programmation & Développement : Marc-Olivier Méhu
Soutien technique & logistique : Manuel Goepfert

Contact : metmap@orbifly.com




SOURCES & CREDITS :

   NOAA